Time;durP1;ratioP1;P1;durP2;ratioP2;P2;SDS_P1;SDS_P2;PMS_P1;PMS_P2;Temp;Humidity;BMP_temperature;BMP_pressure;BME280_temperature;BME280_humidity;BME280_pressure;Samples;Min_cycle;Max_cycle;Signal;HPM_P1;HPM_P2
2022/05/11 00:01:52;;;;;;;;;12.75;10.00;;;;;17.24;42.31;98900.34;6259841;27;96606;-71
2022/05/11 00:04:55;;;;;;;;;13.25;12.00;;;;;17.42;42.14;98914.59;6257098;27;96762;-70
2022/05/11 00:07:59;;;;;;;;;11.80;11.00;;;;;17.39;42.42;98918.69;6236432;27;98468;-70
2022/05/11 00:11:04;;;;;;;;;12.50;12.00;;;;;17.20;42.31;98882.06;6254239;27;96827;-71
2022/05/11 00:14:08;;;;;;;;;13.00;11.25;;;;;17.33;42.86;98911.56;6225382;27;96772;-71
2022/05/11 00:17:11;;;;;;;;;12.20;10.60;;;;;17.25;42.55;98912.84;6261077;27;97440;-71
2022/05/11 00:20:17;;;;;;;;;12.00;11.20;;;;;17.17;42.46;98904.38;6247052;27;96829;-72
2022/05/11 00:23:20;;;;;;;;;13.40;12.00;;;;;17.21;42.47;98905.47;6255303;27;98427;-71
2022/05/11 00:26:25;;;;;;;;;11.00;10.00;;;;;17.08;42.84;98895.88;6225700;27;96738;-71
2022/05/11 00:29:30;;;;;;;;;11.20;10.20;;;;;17.11;42.98;98898.06;6230104;27;98648;-72
2022/05/11 00:32:34;;;;;;;;;12.75;12.00;;;;;17.05;43.29;98898.31;6256361;27;96668;-71
2022/05/11 00:35:37;;;;;;;;;11.75;10.00;;;;;16.99;43.32;98896.66;6254040;27;97466;-71
2022/05/11 00:38:41;;;;;;;;;10.00;9.60;;;;;16.93;43.11;98901.22;6252667;27;96575;-71
2022/05/11 00:41:46;;;;;;;;;10.00;10.00;;;;;16.90;42.96;98893.59;6237444;27;98366;-71
2022/05/11 00:44:49;;;;;;;;;11.40;10.60;;;;;16.94;43.15;98888.44;6239001;27;97618;-71
2022/05/11 00:48:00;;;;;;;;;10.00;9.00;;;;;16.93;43.35;98898.50;6237625;27;97891;-71
2022/05/11 00:51:02;;;;;;;;;11.20;10.20;;;;;16.92;43.34;98893.31;6241747;27;97467;-71
2022/05/11 00:54:09;;;;;;;;;10.80;10.00;;;;;16.91;42.75;98894.44;6258378;27;97260;-71
2022/05/11 00:57:18;;;;;;;;;12.00;11.00;;;;;16.98;42.61;98892.28;6255689;27;96589;-71
2022/05/11 01:00:23;;;;;;;;;13.40;12.00;;;;;17.00;42.78;98898.28;6256824;27;97458;-71
2022/05/11 01:03:33;;;;;;;;;12.00;12.00;;;;;16.99;43.03;98893.91;6255520;27;97105;-71
2022/05/11 01:06:38;;;;;;;;;12.00;12.00;;;;;16.98;43.34;98893.09;6250574;27;96760;-71
2022/05/11 01:09:41;;;;;;;;;11.00;10.00;;;;;16.83;43.73;98882.94;6221093;27;98249;-71
2022/05/11 01:12:50;;;;;;;;;12.00;10.00;;;;;16.86;43.38;98884.28;6225236;27;98620;-71
2022/05/11 01:15:54;;;;;;;;;9.00;9.00;;;;;16.57;43.34;98840.22;6236343;27;98663;-71
2022/05/11 01:18:59;;;;;;;;;10.00;10.00;;;;;16.79;43.45;98886.44;6249388;27;97510;-70
2022/05/11 01:22:10;;;;;;;;;11.40;10.00;;;;;16.77;43.69;98888.59;6249149;27;97146;-71
2022/05/11 01:25:16;;;;;;;;;10.50;10.00;;;;;16.67;43.90;98877.63;6223405;27;97907;-71
2022/05/11 01:28:20;;;;;;;;;9.20;9.20;;;;;16.60;44.27;98874.31;6240830;27;96514;-71
2022/05/11 01:31:23;;;;;;;;;10.00;10.00;;;;;16.52;44.54;98881.03;6260026;27;97965;-71
2022/05/11 01:34:27;;;;;;;;;9.60;9.00;;;;;16.40;44.91;98872.22;6259413;27;97648;-71
2022/05/11 01:37:31;;;;;;;;;7.75;7.00;;;;;16.28;45.29;98869.66;6221738;27;97110;-71
2022/05/11 01:40:35;;;;;;;;;8.40;8.40;;;;;16.25;45.48;98872.09;6249565;27;96856;-71
2022/05/11 01:43:41;;;;;;;;;11.00;9.40;;;;;16.20;45.61;98870.16;6232933;27;98207;-70
2022/05/11 01:46:46;;;;;;;;;10.00;9.00;;;;;16.20;45.57;98872.88;6219797;28;96463;-71
2022/05/11 01:49:49;;;;;;;;;9.00;8.20;;;;;16.21;45.75;98866.38;6237841;27;97362;-71
2022/05/11 01:52:53;;;;;;;;;10.40;10.00;;;;;16.24;45.58;98870.44;6241598;27;99581;-71
2022/05/11 01:55:57;;;;;;;;;11.00;10.00;;;;;16.04;45.51;98842.00;6238013;27;98294;-71
2022/05/11 01:59:01;;;;;;;;;8.00;8.00;;;;;16.25;44.96;98859.31;6237588;27;98502;-71
2022/05/11 02:02:05;;;;;;;;;10.00;8.60;;;;;16.03;44.89;98823.19;6260552;27;97494;-71
2022/05/11 02:08:36;;;;;;;;;11.00;9.00;;;;;16.07;45.45;98856.97;6186488;27;96938;-72
2022/05/11 02:11:41;;;;;;;;;8.00;8.00;;;;;16.00;45.59;98857.19;6261521;27;97011;-72
2022/05/11 02:14:45;;;;;;;;;8.00;8.00;;;;;15.93;45.89;98853.84;6249966;27;96595;-72
2022/05/11 02:17:49;;;;;;;;;9.00;9.00;;;;;16.00;45.61;98851.75;6239858;27;97768;-70
2022/05/11 02:20:52;;;;;;;;;12.50;11.25;;;;;16.07;45.33;98846.09;6236243;27;96963;-71
2022/05/11 02:23:55;;;;;;;;;10.00;9.00;;;;;16.15;45.07;98850.25;6260005;27;97031;-71
2022/05/11 02:27:04;;;;;;;;;11.00;10.60;;;;;16.18;45.60;98844.28;6243775;27;96549;-71
2022/05/11 02:30:12;;;;;;;;;10.50;10.00;;;;;16.28;44.96;98838.91;6240355;27;97484;-71
2022/05/11 02:33:16;;;;;;;;;10.00;9.00;;;;;16.24;45.09;98832.38;6232657;27;96688;-71
2022/05/11 02:36:19;;;;;;;;;9.00;9.00;;;;;16.07;45.09;98799.06;6243420;27;96818;-71
2022/05/11 02:39:22;;;;;;;;;9.75;8.00;;;;;16.22;44.70;98829.94;6222487;28;96571;-71
2022/05/11 02:42:27;;;;;;;;;10.00;10.00;;;;;16.22;44.90;98821.75;6235134;27;97618;-71
2022/05/11 02:45:32;;;;;;;;;11.00;9.00;;;;;16.26;44.31;98831.03;6239774;27;97559;-71
2022/05/11 02:48:36;;;;;;;;;8.20;8.00;;;;;16.37;43.53;98834.66;6239876;27;96557;-71
2022/05/11 02:51:39;;;;;;;;;8.00;7.40;;;;;16.52;42.96;98833.97;6240076;27;96861;-71
2022/05/11 02:54:42;;;;;;;;;9.50;9.00;;;;;16.67;42.52;98840.34;6241566;27;96912;-71
2022/05/11 02:57:47;;;;;;;;;9.40;7.40;;;;;16.78;42.31;98839.31;6264989;27;98104;-71
2022/05/11 03:00:52;;;;;;;;;9.40;9.00;;;;;16.61;42.46;98805.19;6227079;27;99759;-71
2022/05/11 03:03:57;;;;;;;;;9.50;8.00;;;;;16.74;43.46;98838.22;6240669;27;96926;-71
2022/05/11 03:07:00;;;;;;;;;10.40;9.80;;;;;16.52;43.85;98836.69;6265168;27;96892;-71
2022/05/11 03:10:04;;;;;;;;;12.00;11.00;;;;;16.22;44.10;98821.75;6265088;27;96240;-71
2022/05/11 03:13:10;;;;;;;;;11.00;9.00;;;;;15.69;44.47;98749.22;6246833;27;96966;-71
2022/05/11 03:16:13;;;;;;;;;11.80;10.00;;;;;16.11;44.92;98836.34;6265149;27;97389;-71
2022/05/11 03:19:16;;;;;;;;;10.00;9.33;;;;;16.04;44.98;98839.28;6246397;27;96617;-70
2022/05/11 03:22:20;;;;;;;;;11.00;10.00;;;;;15.89;45.11;98816.56;6264876;27;97428;-71
2022/05/11 03:25:25;;;;;;;;;9.60;9.00;;;;;16.00;45.10;98829.16;6262798;27;96349;-70
2022/05/11 03:28:30;;;;;;;;;9.00;8.40;;;;;16.04;45.03;98833.00;6245534;27;96954;-71
2022/05/11 03:31:34;;;;;;;;;10.00;9.00;;;;;16.07;45.01;98832.50;6259283;27;97043;-72
2022/05/11 03:34:37;;;;;;;;;10.00;9.00;;;;;16.16;44.96;98828.25;6250624;27;96998;-73
2022/05/11 03:37:41;;;;;;;;;10.00;10.00;;;;;16.28;44.66;98830.75;6245012;27;96552;-71
2022/05/11 03:40:44;;;;;;;;;11.60;10.60;;;;;16.38;44.92;98828.13;6263214;27;97154;-71
2022/05/11 03:43:49;;;;;;;;;9.00;8.00;;;;;16.38;44.60;98809.06;6243359;27;99568;-71
2022/05/11 03:46:52;;;;;;;;;11.00;11.00;;;;;16.64;44.33;98830.00;6230514;27;99924;-71
2022/05/11 03:49:56;;;;;;;;;10.80;9.80;;;;;16.76;44.00;98822.44;6259015;27;96533;-70
2022/05/11 03:52:59;;;;;;;;;11.20;9.80;;;;;16.89;43.76;98821.97;6214299;27;100423;-71
2022/05/11 03:56:03;;;;;;;;;12.40;11.00;;;;;17.02;43.52;98828.00;6243509;27;96717;-70
2022/05/11 03:59:08;;;;;;;;;10.00;9.60;;;;;16.96;43.32;98805.38;6211136;27;98954;-70
2022/05/11 04:02:11;;;;;;;;;11.00;11.00;;;;;17.12;43.28;98803.56;6261115;27;97046;-71
2022/05/11 04:05:15;;;;;;;;;11.40;9.00;;;;;17.38;42.76;98821.66;6230021;27;98553;-71
2022/05/11 04:08:19;;;;;;;;;10.80;10.80;;;;;17.56;42.51;98825.78;6241069;27;97057;-70
2022/05/11 04:11:23;;;;;;;;;9.60;8.60;;;;;17.71;42.22;98825.84;6245207;27;96815;-71
2022/05/11 04:14:28;;;;;;;;;11.20;10.00;;;;;17.90;41.63;98832.44;6237603;27;97677;-71
2022/05/11 04:17:31;;;;;;;;;12.33;10.00;;;;;18.05;41.22;98829.72;6243436;27;97508;-71
2022/05/11 04:20:34;;;;;;;;;11.20;10.80;;;;;18.24;41.06;98832.75;6224277;27;98339;-72
2022/05/11 04:23:40;;;;;;;;;9.40;9.40;;;;;18.48;40.60;98833.81;6251615;27;96813;-72
2022/05/11 04:26:43;;;;;;;;;10.60;9.00;;;;;18.72;40.71;98839.56;6222984;27;97224;-71
2022/05/11 04:29:48;;;;;;;;;9.20;8.00;;;;;18.85;40.98;98819.88;6237586;27;97454;-71
2022/05/11 04:32:51;;;;;;;;;9.60;7.60;;;;;19.17;39.76;98835.06;6220684;27;96938;-71
2022/05/11 04:35:55;;;;;;;;;10.00;8.00;;;;;19.38;39.37;98837.47;6249294;27;97231;-71
2022/05/11 04:38:58;;;;;;;;;10.00;9.00;;;;;19.62;39.47;98832.19;6252039;27;97276;-72
2022/05/11 04:42:07;;;;;;;;;9.00;9.00;;;;;19.84;38.43;98834.53;6233477;27;99660;-71
2022/05/11 04:45:12;;;;;;;;;9.00;8.00;;;;;20.10;38.50;98840.63;6240557;27;97180;-71
2022/05/11 04:48:18;;;;;;;;;11.00;10.00;;;;;20.30;38.30;98835.00;6237033;27;96933;-71
2022/05/11 04:51:21;;;;;;;;;9.00;8.00;;;;;20.53;37.91;98845.22;6226903;27;96642;-71
2022/05/11 04:54:24;;;;;;;;;9.00;8.25;;;;;20.71;37.14;98839.06;6229491;27;96695;-71
2022/05/11 04:57:28;;;;;;;;;9.00;9.00;;;;;20.92;37.56;98847.06;6232196;27;96673;-71
2022/05/11 05:00:34;;;;;;;;;11.00;9.40;;;;;21.14;36.94;98844.66;6224684;27;97293;-71
2022/05/11 05:03:37;;;;;;;;;8.00;7.00;;;;;21.29;35.97;98846.41;6257283;27;97421;-71
2022/05/11 05:06:41;;;;;;;;;10.00;9.00;;;;;21.45;35.10;98845.13;6220556;27;96672;-71
2022/05/11 05:09:45;;;;;;;;;9.00;8.00;;;;;21.60;35.72;98847.66;6235022;27;97925;-72
2022/05/11 05:12:48;;;;;;;;;9.40;8.00;;;;;21.80;35.22;98841.88;6234511;27;99145;-71
2022/05/11 05:15:57;;;;;;;;;9.75;9.00;;;;;22.00;34.89;98847.13;6218642;28;96651;-71
2022/05/11 05:19:01;;;;;;;;;12.00;9.00;;;;;22.03;34.36;98854.78;6219752;27;99310;-71
2022/05/11 05:22:05;;;;;;;;;9.80;9.00;;;;;22.20;34.15;98859.72;6238157;27;99897;-72
2022/05/11 05:25:10;;;;;;;;;10.00;8.60;;;;;22.01;34.13;98815.81;6235763;27;98627;-71
2022/05/11 05:31:37;;;;;;;;;8.00;8.00;;;;;22.38;33.79;98847.91;6261863;27;97422;-71
2022/05/11 05:34:43;;;;;;;;;9.00;7.20;;;;;22.57;33.52;98858.06;6260173;27;97051;-72
2022/05/11 05:37:47;;;;;;;;;8.00;8.00;;;;;22.70;33.59;98849.03;6240138;27;97477;-73
2022/05/11 05:40:50;;;;;;;;;7.00;7.00;;;;;22.80;33.57;98841.44;6217586;27;97522;-71
2022/05/11 05:43:54;;;;;;;;;11.00;9.40;;;;;22.85;33.25;98833.13;6245214;27;96676;-71
2022/05/11 05:47:04;;;;;;;;;8.60;7.00;;;;;23.04;33.97;98843.22;6262217;27;96530;-71
2022/05/11 05:50:09;;;;;;;;;8.40;8.00;;;;;23.25;33.63;98841.69;6261310;27;96441;-71
2022/05/11 05:53:14;;;;;;;;;8.00;8.00;;;;;23.37;33.52;98844.75;6238772;27;96932;-72
2022/05/11 05:56:17;;;;;;;;;9.00;8.00;;;;;23.44;33.59;98844.34;6237828;27;98048;-72
2022/05/11 05:59:20;;;;;;;;;7.00;7.00;;;;;23.68;33.36;98847.72;6236860;27;97475;-71
2022/05/11 06:02:25;;;;;;;;;8.00;8.00;;;;;23.81;32.84;98844.09;6213734;28;99523;-71
2022/05/11 06:05:29;;;;;;;;;7.00;7.00;;;;;23.97;33.01;98836.31;6242957;27;97580;-72
2022/05/11 06:08:32;;;;;;;;;8.40;7.40;;;;;24.16;33.14;98835.06;6231526;28;97866;-73
2022/05/11 06:11:36;;;;;;;;;7.80;6.60;;;;;24.38;32.81;98850.81;6254132;27;97040;-73
2022/05/11 06:14:41;;;;;;;;;9.00;8.60;;;;;24.61;32.40;98851.59;6252438;27;97976;-73
2022/05/11 06:17:46;;;;;;;;;6.50;6.00;;;;;24.85;32.29;98846.56;6246349;27;98459;-73
2022/05/11 06:20:51;;;;;;;;;7.00;6.75;;;;;24.80;32.16;98816.38;6235914;28;96727;-73
2022/05/11 06:23:54;;;;;;;;;7.00;7.00;;;;;25.17;32.00;98844.66;6240594;27;96654;-74
2022/05/11 06:26:58;;;;;;;;;7.00;7.00;;;;;25.31;32.00;98850.88;6229062;27;99483;-74
2022/05/11 06:30:08;;;;;;;;;6.00;6.00;;;;;25.37;31.49;98830.25;6263674;27;97687;-72
2022/05/11 06:33:14;;;;;;;;;8.00;6.67;;;;;25.46;31.85;98839.41;6262383;27;97296;-73
2022/05/11 06:36:17;;;;;;;;;7.00;7.00;;;;;25.67;31.87;98842.38;6241713;27;97443;-73
2022/05/11 06:39:23;;;;;;;;;7.00;7.00;;;;;25.85;32.09;98850.38;6228567;27;99869;-73
2022/05/11 06:42:27;;;;;;;;;9.00;8.00;;;;;26.09;31.72;98854.66;6230844;27;96736;-73
2022/05/11 06:45:32;;;;;;;;;7.20;7.20;;;;;26.29;31.46;98845.75;6244187;27;98485;-72
2022/05/11 06:48:36;;;;;;;;;9.00;8.00;;;;;26.34;30.61;98842.00;6248421;27;98124;-70
2022/05/11 06:51:40;;;;;;;;;10.00;9.00;;;;;26.67;30.44;98851.38;6241376;27;97088;-72
2022/05/11 07:01:27;;;;;;;;;8.00;7.40;;;;;27.20;29.48;98847.34;6130663;28;100192;-72
2022/05/11 07:04:35;;;;;;;;;11.00;9.00;;;;;27.24;29.67;98846.34;6161801;28;97898;-72
2022/05/11 07:07:40;;;;;;;;;9.00;8.00;;;;;27.28;29.55;98833.47;6145842;28;99543;-72
2022/05/11 07:12:17;;;;;;;;;7.00;7.00;;;;;27.32;29.20;98812.28;6143784;28;99622;-72
2022/05/11 07:14:08;;;;;;;;;6.00;6.00;;;;;27.73;28.85;98838.47;6124381;28;96999;-72
2022/05/11 07:17:12;;;;;;;;;9.00;8.00;;;;;28.04;28.67;98829.78;6146190;28;96806;-72
2022/05/11 07:20:20;;;;;;;;;6.80;6.00;;;;;28.09;26.90;98835.13;6144109;28;97499;-71
2022/05/11 07:23:25;;;;;;;;;6.00;5.00;;;;;28.25;27.01;98836.94;6142682;28;97444;-72
2022/05/11 07:26:34;;;;;;;;;7.00;6.00;;;;;28.57;27.17;98827.06;6134017;28;99482;-72
2022/05/11 07:29:38;;;;;;;;;6.00;6.00;;;;;28.83;26.60;98833.16;6158355;28;96862;-72
2022/05/11 07:32:41;;;;;;;;;5.00;5.00;;;;;29.01;26.63;98825.47;6156165;28;97257;-72
2022/05/11 07:35:46;;;;;;;;;6.25;6.25;;;;;28.99;26.10;98816.66;6120881;28;97016;-72
2022/05/11 07:38:50;;;;;;;;;5.20;5.20;;;;;28.81;26.20;98793.84;6184008;28;97934;-73
2022/05/11 07:41:55;;;;;;;;;7.00;6.00;;;;;29.18;26.63;98818.88;6234108;28;97353;-74
2022/05/11 07:44:59;;;;;;;;;6.00;6.00;;;;;29.39;27.11;98821.56;6229185;28;97563;-72
2022/05/11 07:48:02;;;;;;;;;9.00;7.00;;;;;29.57;26.11;98820.97;6235022;28;97234;-73
2022/05/11 07:51:07;;;;;;;;;6.80;6.20;;;;;29.69;25.82;98818.22;6204296;28;98736;-73
2022/05/11 07:54:10;;;;;;;;;7.00;7.00;;;;;30.05;25.69;98817.38;6201228;28;99854;-73
2022/05/11 08:00:35;;;;;;;;;7.00;7.00;;;;;30.30;24.52;98820.06;6228927;28;97474;-73
2022/05/11 08:03:38;;;;;;;;;8.00;7.50;;;;;30.43;24.31;98811.31;6205502;28;98102;-73
2022/05/11 08:06:43;;;;;;;;;7.00;7.00;;;;;30.50;24.61;98810.72;6192734;28;98532;-73
2022/05/11 08:09:46;;;;;;;;;8.00;7.00;;;;;30.54;24.88;98797.72;6217094;28;97825;-73
2022/05/11 08:12:52;;;;;;;;;9.00;8.00;;;;;30.68;24.39;98798.13;6226384;28;97282;-73
2022/05/11 08:15:55;;;;;;;;;7.80;7.00;;;;;30.84;24.21;98798.91;6200144;28;99468;-74
2022/05/11 08:18:58;;;;;;;;;9.00;8.00;;;;;31.03;23.74;98795.50;6196031;28;97844;-73
2022/05/11 08:22:04;;;;;;;;;7.00;7.00;;;;;31.26;24.09;98790.91;6221527;28;96574;-73
2022/05/11 08:25:08;;;;;;;;;6.00;6.00;;;;;31.42;23.86;98774.94;6215977;27;96342;-73
2022/05/11 08:28:14;;;;;;;;;8.00;7.00;;;;;31.72;23.80;98785.59;6214489;28;96770;-74
2022/05/11 08:34:38;;;;;;;;;8.00;8.00;;;;;31.84;23.26;98796.66;6240970;27;96639;-73
2022/05/11 08:37:43;;;;;;;;;10.00;8.00;;;;;31.72;23.08;98792.00;6235419;27;99441;-73
2022/05/11 08:40:52;;;;;;;;;8.00;7.00;;;;;31.63;23.38;98793.38;6233392;27;96921;-74
2022/05/11 08:44:01;;;;;;;;;8.00;7.60;;;;;31.90;23.64;98789.63;6241097;27;96450;-74
2022/05/11 08:47:15;;;;;;;;;8.20;7.00;;;;;32.22;23.44;98796.69;6226473;27;96761;-73
2022/05/11 08:50:26;;;;;;;;;6.00;6.00;;;;;32.43;22.95;98795.53;6238253;28;97097;-74
2022/05/11 08:53:38;;;;;;;;;6.00;6.00;;;;;32.44;22.79;98786.78;6252446;27;96879;-75
2022/05/11 08:56:44;;;;;;;;;8.00;8.00;;;;;32.46;22.54;98791.97;6232245;27;98499;-74
2022/05/11 08:59:48;;;;;;;;;6.00;6.00;;;;;32.45;23.38;98788.38;6227095;27;99803;-74
2022/05/11 09:02:54;;;;;;;;;8.00;7.00;;;;;32.58;22.13;98789.03;6240423;27;97164;-74
2022/05/11 09:05:58;;;;;;;;;6.75;5.75;;;;;32.62;22.86;98785.13;6262890;27;96924;-74
2022/05/11 09:09:04;;;;;;;;;7.00;7.00;;;;;32.73;22.18;98790.16;6239742;27;97127;-74
2022/05/11 09:12:11;;;;;;;;;6.00;6.00;;;;;32.85;21.99;98778.78;6231884;27;96772;-74
2022/05/11 09:15:14;;;;;;;;;7.00;6.00;;;;;32.75;22.23;98773.81;6202652;28;97724;-74
2022/05/11 09:18:19;;;;;;;;;6.00;6.00;;;;;32.78;21.66;98775.88;6234468;27;96983;-73
2022/05/11 09:21:30;;;;;;;;;7.00;6.00;;;;;32.76;21.84;98792.19;6202870;27;98408;-74
2022/05/11 09:24:44;;;;;;;;;9.00;8.00;;;;;32.64;22.11;98782.84;6241641;27;97476;-72
2022/05/11 09:27:49;;;;;;;;;7.00;6.50;;;;;32.59;22.32;98771.94;6243041;27;96440;-72
2022/05/11 09:30:59;;;;;;;;;9.00;7.00;;;;;33.08;22.46;98771.22;6258682;27;96776;-72
2022/05/11 09:34:05;;;;;;;;;6.00;5.25;;;;;33.22;21.72;98779.88;6228933;27;96664;-71
2022/05/11 09:37:34;;;;;;;;;7.00;6.00;;;;;33.32;21.63;98764.47;6222911;27;96522;-72
2022/05/11 09:40:55;;;;;;;;;6.60;6.60;;;;;33.64;21.46;98767.72;6222883;28;96726;-72
2022/05/11 09:44:00;;;;;;;;;7.00;7.00;;;;;33.77;20.92;98769.16;6241448;27;96649;-72
2022/05/11 09:47:24;;;;;;;;;7.00;7.00;;;;;33.33;20.64;98736.13;6222185;28;97963;-71
2022/05/11 09:50:27;;;;;;;;;6.60;6.40;;;;;33.30;21.18;98776.00;6240961;27;97437;-71
2022/05/11 09:53:34;;;;;;;;;7.00;7.00;;;;;33.39;21.46;98770.16;6223524;27;97813;-71
2022/05/11 09:56:52;;;;;;;;;8.00;7.00;;;;;33.31;20.71;98763.66;6223187;28;97852;-74
2022/05/11 10:00:18;;;;;;;;;7.40;7.00;;;;;33.38;21.42;98768.56;6222640;27;96645;-76
2022/05/11 10:03:30;;;;;;;;;8.00;7.00;;;;;33.24;20.49;98763.53;6229852;28;96831;-72
2022/05/11 10:06:40;;;;;;;;;7.00;7.00;;;;;33.21;21.07;98763.47;6206288;27;98017;-72
2022/05/11 10:09:49;;;;;;;;;8.00;8.00;;;;;33.22;20.61;98760.31;6240747;27;96828;-72
2022/05/11 10:12:57;;;;;;;;;7.20;7.00;;;;;33.37;20.53;98759.38;6222928;28;97544;-72
2022/05/11 10:23:01;;;;;;;;;8.40;7.00;;;;;33.91;20.42;98758.97;6231579;27;99470;-72
2022/05/11 10:26:12;;;;;;;;;7.00;7.00;;;;;33.88;20.20;98768.09;6222620;28;96499;-72
2022/05/11 10:29:25;;;;;;;;;8.00;8.00;;;;;33.68;19.50;98760.22;6249284;27;98072;-74
2022/05/11 10:32:40;;;;;;;;;8.00;8.00;;;;;33.92;19.83;98749.38;6245223;27;96477;-73
2022/05/11 10:35:50;;;;;;;;;9.00;8.00;;;;;34.10;19.67;98751.59;6260716;27;96744;-72
2022/05/11 10:39:09;;;;;;;;;8.00;7.50;;;;;34.27;19.74;98748.22;6261230;27;97457;-75
2022/05/11 10:42:22;;;;;;;;;7.00;7.00;;;;;34.39;19.85;98755.56;6243439;27;97464;-72
2022/05/11 10:45:35;;;;;;;;;8.60;8.00;;;;;34.21;20.33;98753.34;6247293;27;97320;-74
2022/05/11 10:48:52;;;;;;;;;9.00;9.00;;;;;34.34;20.05;98754.72;6249732;27;97285;-73
2022/05/11 10:52:07;;;;;;;;;8.00;7.60;;;;;34.61;19.46;98743.41;6241242;27;97260;-71
2022/05/11 10:55:25;;;;;;;;;8.00;8.00;;;;;34.46;18.71;98744.44;6249481;27;96619;-72
2022/05/11 10:58:43;;;;;;;;;7.80;7.20;;;;;34.42;18.52;98754.78;6249721;27;97025;-72
2022/05/11 11:02:03;;;;;;;;;8.60;8.60;;;;;34.19;19.16;98749.34;6237904;27;99542;-72
2022/05/11 11:05:12;;;;;;;;;10.00;8.75;;;;;34.06;19.21;98747.97;6238942;27;96841;-73
2022/05/11 11:08:26;;;;;;;;;10.00;9.33;;;;;34.30;20.01;98737.09;6243430;27;97410;-75
2022/05/11 11:11:37;;;;;;;;;7.80;7.80;;;;;34.14;19.89;98733.66;6214809;27;98409;-73
2022/05/11 11:14:47;;;;;;;;;7.40;7.40;;;;;34.07;19.80;98733.56;6238248;27;97528;-74
2022/05/11 11:17:54;;;;;;;;;9.00;8.00;;;;;34.09;19.14;98738.78;6234472;27;96718;-73
2022/05/11 11:21:01;;;;;;;;;8.00;8.00;;;;;33.81;19.17;98702.91;6243189;27;97659;-73
2022/05/11 11:24:14;;;;;;;;;10.00;9.00;;;;;34.16;19.26;98727.69;6253780;27;96742;-74
2022/05/11 11:27:18;;;;;;;;;8.00;7.00;;;;;34.04;19.80;98731.56;6236393;27;97728;-74
2022/05/11 11:30:22;;;;;;;;;8.00;8.00;;;;;34.16;19.38;98719.31;6232838;27;96786;-71
2022/05/11 11:33:29;;;;;;;;;8.00;7.25;;;;;33.82;19.44;98668.13;6243765;27;98374;-73
2022/05/11 11:36:34;;;;;;;;;9.00;8.00;;;;;34.15;19.36;98732.50;6235877;27;97857;-73
2022/05/11 11:39:55;;;;;;;;;7.40;6.00;;;;;34.19;19.35;98724.16;6243852;27;96581;-72
2022/05/11 11:43:38;;;;;;;;;10.00;8.00;;;;;33.84;19.07;98727.28;6233976;27;97821;-73
2022/05/11 11:46:32;;;;;;;;;9.00;8.00;;;;;33.86;19.52;98727.72;6256791;27;97098;-76
2022/05/11 11:49:43;;;;;;;;;9.00;8.00;;;;;33.69;19.80;98723.50;6239600;27;98270;-73
2022/05/11 11:52:48;;;;;;;;;8.00;8.00;;;;;33.88;19.42;98716.94;6227924;27;98423;-76
2022/05/11 11:55:51;;;;;;;;;9.00;7.00;;;;;33.71;19.47;98721.16;6221888;27;100101;-75
2022/05/11 11:59:03;;;;;;;;;7.00;7.00;;;;;33.53;19.58;98706.88;6258687;27;96941;-72
2022/05/11 12:02:22;;;;;;;;;7.00;7.00;;;;;33.53;19.76;98712.47;6224234;27;98286;-74
2022/05/11 12:05:32;;;;;;;;;8.00;7.60;;;;;33.46;19.62;98706.78;6258344;27;97459;-75
2022/05/11 12:15:30;;;;;;;;;8.00;8.00;;;;;34.11;19.46;98700.84;6234270;27;97202;-74
2022/05/11 12:18:36;;;;;;;;;7.60;7.60;;;;;34.29;19.08;98707.50;6261936;27;96779;-73
2022/05/11 12:21:53;;;;;;;;;7.00;7.00;;;;;34.38;18.40;98698.78;6263001;27;97062;-73
2022/05/11 12:25:03;;;;;;;;;7.00;6.00;;;;;34.53;18.26;98699.72;6235542;27;96701;-72
2022/05/11 12:28:20;;;;;;;;;6.00;6.00;;;;;34.45;18.50;98693.28;6238066;28;97392;-73
2022/05/11 12:31:28;;;;;;;;;9.00;8.00;;;;;34.25;18.01;98694.66;6248190;27;97284;-73
2022/05/11 12:34:31;;;;;;;;;7.00;6.40;;;;;34.66;18.34;98685.06;6263252;27;96415;-75
2022/05/11 12:37:38;;;;;;;;;7.00;7.00;;;;;34.55;18.58;98663.75;6253626;27;96480;-75
2022/05/11 12:40:45;;;;;;;;;7.00;7.00;;;;;34.61;18.33;98687.41;6263596;27;96454;-73
2022/05/11 12:43:55;;;;;;;;;8.00;7.50;;;;;34.48;18.27;98677.69;6245406;27;98050;-73
2022/05/11 12:47:01;;;;;;;;;7.25;7.00;;;;;34.33;18.57;98671.13;6244457;27;97644;-73
2022/05/11 12:50:07;;;;;;;;;7.00;6.00;;;;;34.40;18.19;98676.00;6236532;28;97280;-73
2022/05/11 12:53:28;;;;;;;;;7.75;7.00;;;;;34.38;17.88;98673.59;6237586;28;96789;-74
2022/05/11 12:56:33;;;;;;;;;7.00;7.00;;;;;34.42;18.48;98660.44;6236971;28;96983;-74
2022/05/11 12:59:38;;;;;;;;;6.25;6.25;;;;;34.24;18.61;98620.28;6219511;28;97722;-73
2022/05/11 13:02:44;;;;;;;;;7.00;7.00;;;;;34.61;17.83;98662.19;6218915;28;98570;-75
2022/05/11 13:05:50;;;;;;;;;9.00;8.00;;;;;34.50;18.01;98652.91;6242623;27;97385;-75
2022/05/11 13:08:59;;;;;;;;;7.00;6.00;;;;;34.49;17.41;98657.72;6202477;28;96934;-74
2022/05/11 13:12:05;;;;;;;;;6.00;6.00;;;;;34.37;17.51;98660.78;6236353;28;96809;-72
2022/05/11 13:15:10;;;;;;;;;8.00;7.00;;;;;34.14;17.43;98632.94;6237689;28;96488;-76
2022/05/11 13:18:23;;;;;;;;;7.20;6.80;;;;;34.36;17.76;98645.97;6237347;28;96405;-74
2022/05/11 13:21:31;;;;;;;;;6.00;6.00;;;;;34.38;17.79;98650.38;6226633;27;97483;-74
2022/05/11 13:24:42;;;;;;;;;7.00;6.40;;;;;34.63;17.99;98640.22;6229094;28;97397;-75
2022/05/11 13:27:48;;;;;;;;;7.00;6.00;;;;;34.67;17.33;98638.25;6218583;27;98881;-73
2022/05/11 13:30:53;;;;;;;;;6.00;6.00;;;;;34.66;17.56;98639.44;6260801;27;97402;-72
2022/05/11 13:33:57;;;;;;;;;7.00;7.00;;;;;34.46;17.29;98624.06;6261606;27;96828;-73
2022/05/11 13:37:01;;;;;;;;;7.40;6.00;;;;;34.26;17.66;98626.28;6261652;27;96989;-75
2022/05/11 13:40:07;;;;;;;;;7.00;6.00;;;;;34.37;17.53;98624.41;6245129;27;97435;-73
2022/05/11 13:43:19;;;;;;;;;7.00;7.00;;;;;34.32;17.97;98624.75;6218920;28;96483;-74
2022/05/11 13:50:06;;;;;;;;;8.00;8.00;;;;;33.68;18.29;98573.69;6218768;28;97279;-73
2022/05/11 13:53:22;;;;;;;;;8.50;8.00;;;;;34.08;18.54;98626.09;6236458;28;97406;-76
2022/05/11 13:56:29;;;;;;;;;6.25;6.00;;;;;33.86;18.00;98610.28;6247301;27;96446;-74
2022/05/11 13:59:43;;;;;;;;;6.00;6.00;;;;;33.80;18.44;98606.19;6248557;27;97454;-73
2022/05/11 14:02:58;;;;;;;;;6.20;6.20;;;;;33.90;18.31;98594.31;6241664;27;97358;-73
2022/05/11 14:06:05;;;;;;;;;7.00;7.00;;;;;33.87;18.46;98597.88;6242057;27;96400;-75
2022/05/11 14:09:08;;;;;;;;;6.00;6.00;;;;;33.92;18.54;98600.31;6203150;28;98570;-72
2022/05/11 14:12:13;;;;;;;;;7.50;7.00;;;;;33.94;18.28;98584.78;6235186;27;96791;-73
2022/05/11 14:15:17;;;;;;;;;8.00;8.00;;;;;34.09;18.84;98585.72;6247532;27;97495;-72
2022/05/11 14:18:25;;;;;;;;;8.00;7.00;;;;;34.01;18.77;98598.06;6236663;27;97543;-74
2022/05/11 14:21:29;;;;;;;;;6.00;6.00;;;;;34.04;18.98;98596.47;6238779;27;97167;-73
2022/05/11 14:24:33;;;;;;;;;8.20;7.60;;;;;33.92;18.75;98586.34;6223829;28;97991;-74
2022/05/11 14:27:37;;;;;;;;;7.00;7.00;;;;;33.82;18.61;98590.63;6247368;27;97554;-73
2022/05/11 14:30:42;;;;;;;;;8.00;7.00;;;;;33.78;18.92;98586.19;6240707;27;96388;-74
2022/05/11 14:33:48;;;;;;;;;8.60;8.00;;;;;33.68;19.05;98590.47;6233411;27;98723;-74
2022/05/11 14:36:53;;;;;;;;;8.60;8.00;;;;;33.41;19.67;98580.56;6241088;27;97770;-75
2022/05/11 14:40:01;;;;;;;;;6.80;6.80;;;;;33.32;19.08;98582.84;6241494;27;97512;-74
2022/05/11 14:43:07;;;;;;;;;7.40;7.40;;;;;33.21;19.23;98579.91;6243040;27;96621;-74
2022/05/11 14:46:19;;;;;;;;;7.00;6.60;;;;;32.88;19.70;98588.19;6244449;27;96936;-74
2022/05/11 14:49:22;;;;;;;;;6.75;6.25;;;;;32.94;19.82;98579.09;6252220;27;97719;-72
2022/05/11 14:52:26;;;;;;;;;7.00;7.00;;;;;32.89;19.91;98573.81;6241578;27;99730;-73
2022/05/11 14:55:29;;;;;;;;;7.00;7.00;;;;;32.88;19.93;98574.22;6238846;27;97150;-72
2022/05/11 15:01:59;;;;;;;;;5.75;5.75;;;;;32.89;19.55;98573.81;6248499;27;98300;-73
2022/05/11 15:05:12;;;;;;;;;7.00;7.00;;;;;33.02;19.65;98566.84;6241427;27;98079;-74
2022/05/11 15:08:16;;;;;;;;;9.00;8.00;;;;;33.05;20.02;98563.28;6219588;27;99063;-74
2022/05/11 15:14:45;;;;;;;;;7.80;6.40;;;;;33.07;19.61;98560.13;6233407;27;98257;-73
2022/05/11 15:17:48;;;;;;;;;8.00;8.00;;;;;32.90;19.58;98553.09;6249280;27;97433;-73